createdAt,value
2022-09-12T00:01:20.249Z,14.06
2022-09-12T00:03:48.536Z,13.88
2022-09-12T00:06:32.121Z,13.88
2022-09-12T00:09:04.371Z,13.75
2022-09-12T00:11:32.233Z,14.00
2022-09-12T00:14:02.453Z,13.81
2022-09-12T00:16:33.252Z,13.63
2022-09-12T00:19:01.997Z,13.63
2022-09-12T00:21:29.392Z,13.69
2022-09-12T00:23:56.964Z,13.69
2022-09-12T00:26:24.219Z,13.81
2022-09-12T00:28:51.717Z,14.06
2022-09-12T00:31:24.833Z,13.94
2022-09-12T00:33:55.097Z,13.81
2022-09-12T00:36:25.588Z,13.88
2022-09-12T00:38:54.804Z,13.75
2022-09-12T00:41:42.126Z,13.88
2022-09-12T00:44:24.610Z,13.81
2022-09-12T00:46:58.329Z,13.94
2022-09-12T00:49:33.992Z,14.06
2022-09-12T00:52:13.799Z,14.13
2022-09-12T00:55:15.647Z,14.13
2022-09-12T00:58:14.632Z,14.25
2022-09-12T01:00:42.322Z,14.06
2022-09-12T01:03:17.413Z,13.88
2022-09-12T01:06:28.392Z,13.88
2022-09-12T01:08:57.744Z,14.06
2022-09-12T01:11:25.034Z,14.06
2022-09-12T01:13:52.325Z,13.88
2022-09-12T01:16:20.188Z,14.00
2022-09-12T01:19:28.325Z,14.06
2022-09-12T01:22:35.151Z,13.94
2022-09-12T01:25:31.784Z,14.00
2022-09-12T01:28:35.709Z,14.19
2022-09-12T01:31:17.445Z,14.13
2022-09-12T01:33:59.687Z,14.00
2022-09-12T01:36:38.656Z,14.06
2022-09-12T01:39:44.078Z,14.31
2022-09-12T01:42:59.009Z,14.25
2022-09-12T01:45:35.975Z,14.25
2022-09-12T01:48:32.441Z,14.00
2022-09-12T01:51:13.691Z,14.00
2022-09-12T01:53:47.070Z,14.19
2022-09-12T01:56:26.614Z,14.19
2022-09-12T01:59:17.012Z,14.13
2022-09-12T02:01:55.592Z,13.94
2022-09-12T02:04:33.952Z,13.81
2022-09-12T02:07:17.425Z,13.94
2022-09-12T02:10:12.544Z,13.88
2022-09-12T02:12:55.879Z,14.19
2022-09-12T02:15:35.174Z,14.00
2022-09-12T02:18:06.355Z,14.06
2022-09-12T02:20:48.981Z,14.19
2022-09-12T02:23:25.185Z,14.13
2022-09-12T02:26:00.399Z,14.06
2022-09-12T02:28:35.944Z,13.94
2022-09-12T02:31:33.827Z,14.06
2022-09-12T02:34:28.906Z,14.06
2022-09-12T02:37:13.302Z,14.13
2022-09-12T02:39:45.030Z,14.00
2022-09-12T02:42:13.133Z,14.19
2022-09-12T02:44:40.528Z,13.88
2022-09-12T02:47:20.662Z,14.13
2022-09-12T02:49:48.332Z,14.19
2022-09-12T02:52:16.263Z,14.25
2022-09-12T02:54:44.978Z,14.19
2022-09-12T02:57:21.884Z,14.19
2022-09-12T02:59:53.554Z,14.06
2022-09-12T03:02:41.597Z,14.13
2022-09-12T03:05:33.306Z,13.94
2022-09-12T03:08:29.056Z,14.13
2022-09-12T03:11:36.697Z,14.00
2022-09-12T03:14:36.050Z,13.88
2022-09-12T03:17:38.842Z,13.75
2022-09-12T03:20:24.940Z,14.06
2022-09-12T03:22:57.662Z,14.19
2022-09-12T03:25:42.113Z,14.06
2022-09-12T03:28:16.988Z,14.06
2022-09-12T03:30:46.735Z,14.13
2022-09-12T03:33:21.096Z,14.00
2022-09-12T03:35:49.270Z,13.94
2022-09-12T03:38:17.028Z,13.94
2022-09-12T03:40:44.939Z,13.94
2022-09-12T03:43:12.371Z,14.00
2022-09-12T03:45:39.681Z,13.94
2022-09-12T03:48:07.316Z,13.94
2022-09-12T03:50:34.970Z,13.94
2022-09-12T03:53:03.722Z,13.69
2022-09-12T03:55:31.209Z,13.81
2022-09-12T03:57:58.425Z,13.69
2022-09-12T04:00:26.175Z,13.75
2022-09-12T04:02:57.714Z,13.38
2022-09-12T04:05:26.233Z,13.38
2022-09-12T04:07:53.506Z,13.63
2022-09-12T04:10:20.883Z,13.63
2022-09-12T04:12:48.138Z,13.50
2022-09-12T04:15:15.571Z,13.44
2022-09-12T04:17:42.804Z,13.56
2022-09-12T04:20:10.325Z,13.50
2022-09-12T04:22:37.608Z,13.50
2022-09-12T04:25:05.508Z,13.56
2022-09-12T04:27:32.863Z,13.44
2022-09-12T04:30:02.288Z,13.63
2022-09-12T04:32:31.465Z,13.50
2022-09-12T04:34:58.941Z,13.38
2022-09-12T04:37:26.239Z,13.56
2022-09-12T04:39:57.897Z,13.69
2022-09-12T04:42:25.386Z,13.63
2022-09-12T04:44:52.622Z,13.63
2022-09-12T04:47:19.934Z,13.81
2022-09-12T04:49:48.595Z,14.00
2022-09-12T04:52:15.800Z,13.88
2022-09-12T04:54:43.001Z,13.88
2022-09-12T04:57:11.137Z,14.19
2022-09-12T04:59:39.597Z,14.13
2022-09-12T05:02:06.896Z,14.13
2022-09-12T05:04:34.934Z,14.13
2022-09-12T05:07:02.934Z,13.81
2022-09-12T05:09:30.317Z,13.75
2022-09-12T05:12:05.636Z,13.94
2022-09-12T05:14:34.230Z,14.13
2022-09-12T05:17:02.338Z,14.25
2022-09-12T05:19:31.418Z,14.06
2022-09-12T05:21:59.570Z,14.06
2022-09-12T05:24:27.395Z,14.13
2022-09-12T05:26:54.819Z,14.13
2022-09-12T05:29:22.074Z,14.31
2022-09-12T05:31:52.326Z,14.31
2022-09-12T05:34:21.009Z,14.38
2022-09-12T05:36:49.156Z,14.44
2022-09-12T05:39:16.594Z,14.44
2022-09-12T05:41:43.817Z,14.19
2022-09-12T05:44:15.251Z,14.38
2022-09-12T05:46:48.653Z,14.50
2022-09-12T05:49:15.921Z,14.56
2022-09-12T05:51:46.003Z,14.56
2022-09-12T05:54:17.860Z,14.50
2022-09-12T05:56:46.388Z,14.44
2022-09-12T05:59:19.856Z,14.44
2022-09-12T06:01:48.655Z,14.38
2022-09-12T06:04:17.236Z,14.44
2022-09-12T06:06:46.256Z,14.50
2022-09-12T06:09:16.685Z,14.38
2022-09-12T06:11:45.770Z,14.31
2022-09-12T06:14:16.312Z,14.31
2022-09-12T06:16:43.878Z,14.44
2022-09-12T06:19:20.601Z,14.63
2022-09-12T06:21:51.682Z,14.63
2022-09-12T06:24:20.249Z,14.44
2022-09-12T06:26:49.231Z,14.50
2022-09-12T06:29:17.313Z,14.69
2022-09-12T06:31:45.882Z,14.69
2022-09-12T06:34:15.629Z,14.69
2022-09-12T06:36:46.630Z,14.56
2022-09-12T06:39:22.832Z,14.88
2022-09-12T06:41:52.195Z,14.94
2022-09-12T06:44:23.037Z,15.00
2022-09-12T06:46:50.811Z,15.25
2022-09-12T06:49:18.323Z,15.19
2022-09-12T06:51:45.539Z,15.31
2022-09-12T06:54:15.664Z,15.38
2022-09-12T06:56:43.834Z,15.38
2022-09-12T06:59:11.100Z,15.31
2022-09-12T07:01:38.637Z,15.25
2022-09-12T07:04:06.146Z,15.19
2022-09-12T07:06:41.873Z,15.13
2022-09-12T07:09:13.947Z,15.19
2022-09-12T07:11:43.057Z,15.31
2022-09-12T07:14:14.094Z,15.56
2022-09-12T07:16:42.068Z,15.88
2022-09-12T07:19:11.011Z,16.13
2022-09-12T07:21:40.445Z,16.31
2022-09-12T07:24:10.178Z,16.56
2022-09-12T07:26:38.877Z,16.44
2022-09-12T07:29:34.737Z,16.81
2022-09-12T07:31:53.706Z,17.13
2022-09-12T07:34:20.957Z,16.88
2022-09-12T07:36:48.184Z,17.00
2022-09-12T07:39:15.479Z,17.19
2022-09-12T07:41:42.626Z,17.50
2022-09-12T07:44:09.998Z,17.13
2022-09-12T07:46:37.327Z,17.06
2022-09-12T07:49:04.631Z,16.94
2022-09-12T07:51:32.443Z,16.75
2022-09-12T07:54:00.160Z,17.00
2022-09-12T07:56:31.192Z,16.94
2022-09-12T07:59:00.073Z,17.13
2022-09-12T08:01:28.156Z,17.00
2022-09-12T08:03:59.153Z,17.06
2022-09-12T08:06:28.580Z,17.13
2022-09-12T08:08:58.272Z,17.00
2022-09-12T08:11:28.476Z,17.19
2022-09-12T08:13:57.784Z,17.06
2022-09-12T08:16:35.534Z,16.94
2022-09-12T08:19:04.024Z,16.81
2022-09-12T08:21:33.535Z,16.56
2022-09-12T08:24:06.302Z,16.50
2022-09-12T08:26:35.314Z,16.88
2022-09-12T08:29:02.661Z,17.19
2022-09-12T08:31:36.525Z,17.31
2022-09-12T08:34:07.945Z,17.13
2022-09-12T08:36:36.040Z,16.94
2022-09-12T08:39:08.036Z,16.88
2022-09-12T08:41:47.140Z,16.88
2022-09-12T08:44:35.571Z,16.81
2022-09-12T08:47:37.089Z,16.88
2022-09-12T08:50:12.872Z,17.06
2022-09-12T08:52:52.049Z,17.00
2022-09-12T08:55:28.443Z,17.00
2022-09-12T08:57:55.693Z,16.94
2022-09-12T09:00:23.282Z,16.94
2022-09-12T09:03:02.783Z,16.94
2022-09-12T09:05:51.454Z,17.00
2022-09-12T09:08:45.359Z,17.00
2022-09-12T09:11:42.932Z,17.00
2022-09-12T09:14:56.545Z,17.00
2022-09-12T09:17:33.082Z,16.88
2022-09-12T09:20:15.318Z,17.06
2022-09-12T09:23:22.133Z,17.00
2022-09-12T09:26:01.862Z,17.13
2022-09-12T09:28:42.679Z,17.13
2022-09-12T09:31:22.012Z,17.25
2022-09-12T09:33:55.246Z,17.38
2022-09-12T09:36:41.324Z,17.19
2022-09-12T09:39:35.251Z,17.38
2022-09-12T09:42:12.753Z,17.44
2022-09-12T09:44:40.367Z,17.56
2022-09-12T09:47:12.853Z,17.56
2022-09-12T09:49:40.532Z,17.81
2022-09-12T09:52:09.141Z,17.56
2022-09-12T09:54:57.449Z,17.81
2022-09-12T09:57:37.171Z,17.56
2022-09-12T10:00:31.707Z,17.38
2022-09-12T10:03:13.924Z,17.38
2022-09-12T10:06:01.244Z,17.25
2022-09-12T10:08:32.657Z,17.38
2022-09-12T10:11:19.405Z,17.25
2022-09-12T10:13:58.159Z,17.19
2022-09-12T10:16:30.314Z,17.44
2022-09-12T10:19:00.698Z,17.63
2022-09-12T10:22:01.093Z,17.63
2022-09-12T10:24:35.506Z,17.88
2022-09-12T10:27:41.342Z,17.81
2022-09-12T10:30:19.821Z,17.88
2022-09-12T10:32:54.212Z,17.88
2022-09-12T10:35:48.213Z,17.88
2022-09-12T10:38:33.571Z,17.75
2022-09-12T10:41:10.398Z,17.69
2022-09-12T10:43:41.506Z,17.44
2022-09-12T10:46:29.436Z,17.56
2022-09-12T10:49:31.551Z,17.56
2022-09-12T10:52:24.021Z,17.56
2022-09-12T10:54:52.449Z,17.50
2022-09-12T10:57:47.691Z,17.44
2022-09-12T11:00:27.550Z,17.44
2022-09-12T11:03:17.050Z,17.50
2022-09-12T11:06:01.866Z,17.25
2022-09-12T11:08:34.672Z,17.19
2022-09-12T11:11:29.633Z,17.13
2022-09-12T11:14:46.385Z,17.13
2022-09-12T11:17:47.384Z,17.19
2022-09-12T11:20:44.726Z,17.31
2022-09-12T11:23:14.737Z,17.44
2022-09-12T11:25:55.669Z,17.50
2022-09-12T11:28:50.731Z,17.50
2022-09-12T11:31:35.785Z,17.63
2022-09-12T11:34:09.711Z,17.38
2022-09-12T11:37:07.440Z,17.38
2022-09-12T11:39:41.514Z,17.44
2022-09-12T11:42:26.260Z,17.69
2022-09-12T11:45:17.875Z,18.13
2022-09-12T11:47:55.859Z,18.25
2022-09-12T11:50:32.206Z,18.44
2022-09-12T11:53:23.622Z,18.31
2022-09-12T11:56:17.271Z,18.44
2022-09-12T11:58:53.353Z,18.31
2022-09-12T12:01:48.695Z,18.56
2022-09-12T12:04:22.342Z,18.38
2022-09-12T12:07:11.314Z,18.25
2022-09-12T12:09:53.223Z,18.19
2022-09-12T12:12:25.621Z,18.06
2022-09-12T12:14:55.686Z,18.06
2022-09-12T12:17:25.689Z,18.00
2022-09-12T12:20:07.428Z,17.88
2022-09-12T12:22:36.153Z,17.81
2022-09-12T12:25:17.248Z,17.94
2022-09-12T12:27:59.199Z,17.81
2022-09-12T12:30:33.582Z,18.00
2022-09-12T12:33:02.106Z,18.00
2022-09-12T12:36:04.705Z,18.13
2022-09-12T12:38:44.494Z,18.00
2022-09-12T12:41:17.710Z,17.94
2022-09-12T12:43:48.583Z,18.06
2022-09-12T12:46:18.055Z,18.00
2022-09-12T12:49:27.612Z,17.94
2022-09-12T12:51:55.996Z,17.94
2022-09-12T12:54:41.459Z,17.75
2022-09-12T12:57:26.747Z,17.63
2022-09-12T12:59:55.833Z,17.63
2022-09-12T13:02:36.228Z,17.56
2022-09-12T13:05:16.249Z,17.50
2022-09-12T13:07:44.680Z,17.63
2022-09-12T13:10:29.361Z,17.81
2022-09-12T13:13:01.537Z,17.81
2022-09-12T13:15:37.949Z,18.06
2022-09-12T13:18:22.225Z,18.06
2022-09-12T13:21:16.019Z,18.19
2022-09-12T13:23:44.491Z,18.06
2022-09-12T13:26:28.221Z,18.00
2022-09-12T13:29:21.988Z,17.88
2022-09-12T13:31:56.441Z,17.88
2022-09-12T13:34:31.825Z,18.06
2022-09-12T13:37:49.708Z,18.06
2022-09-12T13:40:38.479Z,18.13
2022-09-12T13:43:17.817Z,17.88
2022-09-12T13:45:47.629Z,17.81
2022-09-12T13:48:23.612Z,17.88
2022-09-12T13:51:00.896Z,17.69
2022-09-12T13:53:38.211Z,17.69
2022-09-12T13:56:05.503Z,17.75
2022-09-12T13:58:35.237Z,17.88
2022-09-12T14:01:13.677Z,17.75
2022-09-12T14:04:14.059Z,17.88
2022-09-12T14:06:51.186Z,18.00
2022-09-12T14:09:32.703Z,18.06
2022-09-12T14:12:00.283Z,18.06
2022-09-12T14:14:43.984Z,17.94
2022-09-12T14:17:29.872Z,18.19
2022-09-12T14:19:59.460Z,18.06
2022-09-12T14:22:29.912Z,18.19
2022-09-12T14:24:59.662Z,18.06
2022-09-12T14:27:44.377Z,18.25
2022-09-12T14:30:36.547Z,18.19
2022-09-12T14:33:09.756Z,18.25
2022-09-12T14:35:43.296Z,18.13
2022-09-12T14:38:16.910Z,18.19
2022-09-12T14:41:01.847Z,18.19
2022-09-12T14:43:36.238Z,18.19
2022-09-12T14:46:18.213Z,18.31
2022-09-12T14:48:54.789Z,18.38
2022-09-12T14:51:34.794Z,18.31
2022-09-12T14:54:02.803Z,18.38
2022-09-12T14:56:45.344Z,18.38
2022-09-12T14:59:41.980Z,18.25
2022-09-12T15:02:20.779Z,18.31
2022-09-12T15:05:04.297Z,18.31
2022-09-12T15:08:03.818Z,18.38
2022-09-12T15:10:34.778Z,18.56
2022-09-12T15:13:11.101Z,18.38
2022-09-12T15:15:41.500Z,18.31
2022-09-12T15:18:09.769Z,18.38
2022-09-12T15:20:40.278Z,18.31
2022-09-12T15:23:17.446Z,18.19
2022-09-12T15:25:44.753Z,18.25
2022-09-12T15:28:21.189Z,18.19
2022-09-12T15:30:51.598Z,18.19
2022-09-12T15:33:21.104Z,18.25
2022-09-12T15:35:48.591Z,18.00
2022-09-12T15:38:15.880Z,18.06
2022-09-12T15:40:43.146Z,18.00
2022-09-12T15:43:14.150Z,18.06
2022-09-12T15:45:44.305Z,18.00
2022-09-12T15:48:11.898Z,17.94
2022-09-12T15:50:39.181Z,18.00
2022-09-12T15:53:06.421Z,17.88
2022-09-12T15:55:33.918Z,17.75
2022-09-12T15:58:06.265Z,17.69
2022-09-12T16:00:34.420Z,17.44
2022-09-12T16:03:01.842Z,17.50
2022-09-12T16:05:29.693Z,17.63
2022-09-12T16:07:56.948Z,17.63
2022-09-12T16:10:30.598Z,17.63
2022-09-12T16:12:58.398Z,17.63
2022-09-12T16:15:26.428Z,17.56
2022-09-12T16:17:54.149Z,17.56
2022-09-12T16:20:22.829Z,17.31
2022-09-12T16:22:50.149Z,17.38
2022-09-12T16:25:17.759Z,17.44
2022-09-12T16:27:45.848Z,17.31
2022-09-12T16:30:13.880Z,17.38
2022-09-12T16:32:41.504Z,17.38
2022-09-12T16:35:09.757Z,17.31
2022-09-12T16:37:36.998Z,17.31
2022-09-12T16:40:06.388Z,17.19
2022-09-12T16:42:33.682Z,17.31
2022-09-12T16:45:00.901Z,17.13
2022-09-12T16:47:32.208Z,17.19
2022-09-12T16:49:59.719Z,17.06
2022-09-12T16:52:27.259Z,17.00
2022-09-12T16:54:54.519Z,16.94
2022-09-12T16:57:22.562Z,16.94
2022-09-12T16:59:49.995Z,16.75
2022-09-12T17:02:17.297Z,16.75
2022-09-12T17:04:44.673Z,16.69
2022-09-12T17:07:11.901Z,16.63
2022-09-12T17:09:39.159Z,16.50
2022-09-12T17:12:06.650Z,16.63
2022-09-12T17:14:33.928Z,16.63
2022-09-12T17:17:01.222Z,16.63
2022-09-12T17:19:30.025Z,16.63
2022-09-12T17:21:58.416Z,16.56
2022-09-12T17:24:26.832Z,16.56
2022-09-12T17:26:54.882Z,16.50
2022-09-12T17:29:22.154Z,16.50
2022-09-12T17:31:49.452Z,16.38
2022-09-12T17:34:17.808Z,16.31
2022-09-12T17:36:48.478Z,16.38
2022-09-12T17:39:16.111Z,16.13
2022-09-12T17:41:45.781Z,16.13
2022-09-12T17:44:15.193Z,16.00
2022-09-12T17:46:43.426Z,15.88
2022-09-12T17:49:22.149Z,15.75
2022-09-12T17:51:49.485Z,15.75
2022-09-12T17:54:20.848Z,15.69
2022-09-12T17:56:49.900Z,15.56
2022-09-12T17:59:21.489Z,15.56
2022-09-12T18:02:07.523Z,15.50
2022-09-12T18:04:35.083Z,15.44
2022-09-12T18:07:02.457Z,15.25
2022-09-12T18:09:30.775Z,15.19
2022-09-12T18:11:58.675Z,15.06
2022-09-12T18:14:27.777Z,15.19
2022-09-12T18:16:57.229Z,15.06
2022-09-12T18:19:25.277Z,14.88
2022-09-12T18:21:52.739Z,14.75
2022-09-12T18:24:20.021Z,14.69
2022-09-12T18:26:47.380Z,14.69
2022-09-12T18:29:20.164Z,14.63
2022-09-12T18:31:48.093Z,14.69
2022-09-12T18:34:17.714Z,14.50
2022-09-12T18:36:48.897Z,14.13
2022-09-12T18:39:18.009Z,14.44
2022-09-12T18:41:45.385Z,14.44
2022-09-12T18:44:12.904Z,14.31
2022-09-12T18:46:40.293Z,14.19
2022-09-12T18:49:09.334Z,14.06
2022-09-12T18:51:40.139Z,13.94
2022-09-12T18:54:12.844Z,13.94
2022-09-12T18:56:43.527Z,14.13
2022-09-12T18:59:12.962Z,14.00
2022-09-12T19:01:40.646Z,14.06
2022-09-12T19:04:10.218Z,14.00
2022-09-12T19:06:44.713Z,14.06
2022-09-12T19:09:15.125Z,14.00
2022-09-12T19:11:48.973Z,13.94
2022-09-12T19:14:18.869Z,14.00
2022-09-12T19:16:46.337Z,13.69
2022-09-12T19:19:13.559Z,13.75
2022-09-12T19:21:42.135Z,13.69
2022-09-12T19:24:10.671Z,13.94
2022-09-12T19:26:39.627Z,13.56
2022-09-12T19:29:09.149Z,13.63
2022-09-12T19:31:36.391Z,13.50
2022-09-12T19:34:06.463Z,13.44
2022-09-12T19:36:44.785Z,13.50
2022-09-12T19:39:12.926Z,13.50
2022-09-12T19:41:40.083Z,13.56
2022-09-12T19:44:07.429Z,13.38
2022-09-12T19:46:34.995Z,13.25
2022-09-12T19:49:02.287Z,13.31
2022-09-12T19:51:29.599Z,13.25
2022-09-12T19:53:56.988Z,13.31
2022-09-12T19:56:24.180Z,13.31
2022-09-12T19:58:56.095Z,13.31
2022-09-12T20:01:29.988Z,13.38
2022-09-12T20:03:58.102Z,12.88
2022-09-12T20:06:26.912Z,13.19
2022-09-12T20:08:55.062Z,13.19
2022-09-12T20:11:24.462Z,13.06
2022-09-12T20:13:52.435Z,13.13
2022-09-12T20:16:29.194Z,13.13
2022-09-12T20:19:03.699Z,12.81
2022-09-12T20:21:32.661Z,12.88
2022-09-12T20:24:04.617Z,12.81
2022-09-12T20:26:32.180Z,12.88
2022-09-12T20:29:00.143Z,12.94
2022-09-12T20:31:27.693Z,12.44
2022-09-12T20:33:55.428Z,12.44
2022-09-12T20:36:23.886Z,12.69
2022-09-12T20:39:02.591Z,12.88
2022-09-12T20:41:33.800Z,12.88
2022-09-12T20:44:01.004Z,12.88
2022-09-12T20:46:29.139Z,12.88
2022-09-12T20:48:57.038Z,12.81
2022-09-12T20:51:26.675Z,12.63
2022-09-12T20:54:00.187Z,12.63
2022-09-12T20:56:29.054Z,12.69
2022-09-12T20:58:57.594Z,12.31
2022-09-12T21:01:26.912Z,12.50
2022-09-12T21:03:55.227Z,12.63
2022-09-12T21:06:22.596Z,12.75
2022-09-12T21:08:51.022Z,12.50
2022-09-12T21:11:20.268Z,12.50
2022-09-12T21:13:47.892Z,12.56
2022-09-12T21:16:19.060Z,12.50
2022-09-12T21:18:46.821Z,12.56
2022-09-12T21:21:16.392Z,12.50
2022-09-12T21:23:43.687Z,12.38
2022-09-12T21:26:11.257Z,12.38
2022-09-12T21:28:38.600Z,12.31
2022-09-12T21:31:06.197Z,12.31
2022-09-12T21:33:33.555Z,12.13
2022-09-12T21:36:06.540Z,12.06
2022-09-12T21:38:34.757Z,12.13
2022-09-12T21:41:11.801Z,12.25
2022-09-12T21:43:39.714Z,12.13
2022-09-12T21:46:08.456Z,12.25
2022-09-12T21:48:36.678Z,12.00
2022-09-12T21:51:04.508Z,12.19
2022-09-12T21:53:32.224Z,12.13
2022-09-12T21:56:07.072Z,12.06
2022-09-12T21:58:34.906Z,12.19
2022-09-12T22:01:02.687Z,12.13
2022-09-12T22:03:30.841Z,12.00
2022-09-12T22:06:03.853Z,11.94
2022-09-12T22:08:33.366Z,11.94
2022-09-12T22:11:04.682Z,11.75
2022-09-12T22:13:32.521Z,11.75
2022-09-12T22:16:03.484Z,11.81
2022-09-12T22:18:36.928Z,11.94
2022-09-12T22:21:19.424Z,12.00
2022-09-12T22:24:05.149Z,11.88
2022-09-12T22:26:42.015Z,11.88
2022-09-12T22:29:10.432Z,11.88
2022-09-12T22:31:38.642Z,12.00
2022-09-12T22:34:06.642Z,11.75
2022-09-12T22:36:37.042Z,11.81
2022-09-12T22:39:06.496Z,11.69
2022-09-12T22:41:33.883Z,11.75
2022-09-12T22:44:01.207Z,11.69
2022-09-12T22:46:30.090Z,11.69
2022-09-12T22:48:57.430Z,11.63
2022-09-12T22:51:24.741Z,11.63
2022-09-12T22:53:52.470Z,11.75
2022-09-12T22:56:19.852Z,11.69
2022-09-12T22:58:47.113Z,11.56
2022-09-12T23:01:14.683Z,11.63
2022-09-12T23:03:42.313Z,11.44
2022-09-12T23:06:11.306Z,11.44
2022-09-12T23:08:39.927Z,11.44
2022-09-12T23:11:13.874Z,11.06
2022-09-12T23:13:45.464Z,11.19
2022-09-12T23:16:21.777Z,11.44
2022-09-12T23:18:49.491Z,11.38
2022-09-12T23:21:20.275Z,11.31
2022-09-12T23:23:47.645Z,11.44
2022-09-12T23:26:18.296Z,11.31
2022-09-12T23:29:05.823Z,11.25
2022-09-12T23:31:34.797Z,11.19
2022-09-12T23:34:06.123Z,10.94
2022-09-12T23:36:34.597Z,11.00
2022-09-12T23:39:02.349Z,11.19
2022-09-12T23:41:29.794Z,11.13
2022-09-12T23:43:57.317Z,11.13
2022-09-12T23:46:24.832Z,11.19
2022-09-12T23:48:53.496Z,11.00
2022-09-12T23:51:22.117Z,11.31
2022-09-12T23:53:50.201Z,11.38
2022-09-12T23:56:17.443Z,11.31
2022-09-12T23:58:44.798Z,11.31
